Time;durP1;ratioP1;P1;durP2;ratioP2;P2;SDS_P1;SDS_P2;PMS_P1;PMS_P2;Temp;Humidity;BMP_temperature;BMP_pressure;BME280_temperature;BME280_humidity;BME280_pressure;Samples;Min_cycle;Max_cycle;Signal;HPM_P1;HPM_P2
2023/08/20 00:01:13;;;;;;;3.30;3.10;;;25.20;99.90;;;;;;5083550;28;20665;-64
2023/08/20 00:03:43;;;;;;;3.50;3.30;;;25.20;99.90;;;;;;5079849;28;20197;-64
2023/08/20 00:06:11;;;;;;;3.10;2.90;;;25.20;99.90;;;;;;5072728;28;20227;-64
2023/08/20 00:08:38;;;;;;;3.30;3.10;;;25.10;99.90;;;;;;5081485;28;20255;-64
2023/08/20 00:11:05;;;;;;;4.63;3.20;;;25.10;99.90;;;;;;5080251;28;20229;-65
2023/08/20 00:13:32;;;;;;;3.30;3.10;;;25.10;99.90;;;;;;5068893;28;20296;-65
2023/08/20 00:16:02;;;;;;;2.75;2.65;;;25.10;99.90;;;;;;5092198;28;20189;-64
2023/08/20 00:18:29;;;;;;;2.80;2.70;;;25.20;99.90;;;;;;5072085;28;20193;-63
2023/08/20 00:20:57;;;;;;;2.60;2.50;;;25.20;99.90;;;;;;5084610;28;20731;-64
2023/08/20 00:23:25;;;;;;;2.88;2.67;;;25.20;99.90;;;;;;5084673;28;20659;-63
2023/08/20 00:25:52;;;;;;;3.97;3.20;;;25.20;99.90;;;;;;5090525;28;20686;-64
2023/08/20 00:28:21;;;;;;;2.60;2.50;;;25.20;99.90;;;;;;5086790;28;20200;-65
2023/08/20 00:30:49;;;;;;;2.83;2.72;;;25.20;99.90;;;;;;5089740;28;20296;-64
2023/08/20 00:33:18;;;;;;;3.05;2.95;;;25.10;99.90;;;;;;5086223;28;20199;-64
2023/08/20 00:35:45;;;;;;;3.25;3.05;;;25.10;99.90;;;;;;5087477;28;20245;-65
2023/08/20 00:38:13;;;;;;;2.85;2.75;;;25.10;99.90;;;;;;5078691;28;20212;-64
2023/08/20 00:40:40;;;;;;;2.92;2.80;;;25.10;99.90;;;;;;5084877;28;20706;-63
2023/08/20 00:43:07;;;;;;;2.90;2.80;;;25.10;99.90;;;;;;5079690;28;20227;-65
2023/08/20 00:45:35;;;;;;;2.83;2.72;;;25.10;99.90;;;;;;5083957;28;20209;-64
2023/08/20 00:48:03;;;;;;;2.60;2.40;;;25.10;99.90;;;;;;5072486;28;20254;-64
2023/08/20 00:50:31;;;;;;;3.20;2.72;;;25.10;99.90;;;;;;5081737;28;20671;-64
2023/08/20 00:52:59;;;;;;;2.92;2.80;;;25.10;99.90;;;;;;5072871;28;20561;-64
2023/08/20 00:55:26;;;;;;;2.80;2.70;;;25.10;99.90;;;;;;5083105;28;20196;-64
2023/08/20 00:57:53;;;;;;;2.70;2.60;;;25.10;99.90;;;;;;5076041;28;20205;-64
2023/08/20 01:00:21;;;;;;;2.40;2.30;;;25.10;99.90;;;;;;5082110;28;20216;-64
2023/08/20 01:02:48;;;;;;;2.50;2.40;;;25.00;99.90;;;;;;5075919;28;20201;-64
2023/08/20 01:05:17;;;;;;;2.70;2.60;;;25.00;99.90;;;;;;5072096;28;20201;-64
2023/08/20 01:07:58;;;;;;;2.90;2.80;;;25.00;99.90;;;;;;5074509;28;20189;-64
2023/08/20 01:10:34;;;;;;;2.63;2.53;;;24.90;99.90;;;;;;5075856;28;20281;-65
2023/08/20 01:13:03;;;;;;;2.65;2.55;;;24.90;99.90;;;;;;5083375;28;20197;-64
2023/08/20 01:15:30;;;;;;;3.03;2.83;;;24.90;99.90;;;;;;5089342;28;20591;-64
2023/08/20 01:17:57;;;;;;;2.97;2.78;;;24.80;99.90;;;;;;5083087;28;20201;-64
2023/08/20 01:20:28;;;;;;;3.20;3.00;;;24.80;99.90;;;;;;5088793;28;20549;-64
2023/08/20 01:23:38;;;;;;;3.00;2.80;;;24.80;99.90;;;;;;5081972;28;20209;-64
2023/08/20 01:26:34;;;;;;;2.58;2.40;;;24.70;99.90;;;;;;5043891;28;20215;-64
2023/08/20 01:29:03;;;;;;;2.88;2.67;;;24.70;99.90;;;;;;5078979;28;20199;-65
2023/08/20 01:31:31;;;;;;;2.30;2.20;;;24.70;99.90;;;;;;5084558;28;20587;-65
2023/08/20 01:33:58;;;;;;;3.00;2.90;;;24.70;99.90;;;;;;5086555;28;20200;-65
2023/08/20 01:36:25;;;;;;;3.08;2.78;;;24.60;99.90;;;;;;5082044;28;20201;-64
2023/08/20 01:38:52;;;;;;;3.10;2.90;;;24.60;99.90;;;;;;5086336;28;20246;-65
2023/08/20 01:41:19;;;;;;;2.75;2.65;;;24.60;99.90;;;;;;5080852;28;20208;-65
2023/08/20 01:43:46;;;;;;;2.50;2.30;;;24.60;99.90;;;;;;5085541;28;20648;-65
2023/08/20 01:46:15;;;;;;;2.72;2.63;;;24.60;99.90;;;;;;5078064;28;20220;-65
2023/08/20 01:48:42;;;;;;;2.42;2.33;;;24.60;99.90;;;;;;5084386;28;20196;-65
2023/08/20 01:51:09;;;;;;;2.17;2.08;;;24.60;99.90;;;;;;5071359;28;20201;-65
2023/08/20 01:53:39;;;;;;;2.75;2.58;;;24.60;99.90;;;;;;5079234;28;20196;-66
2023/08/20 01:56:11;;;;;;;2.33;2.22;;;24.60;99.90;;;;;;5077059;28;20565;-66
2023/08/20 01:58:39;;;;;;;2.63;2.53;;;24.50;99.90;;;;;;5080484;28;20203;-66
2023/08/20 02:01:06;;;;;;;2.67;2.58;;;24.50;99.90;;;;;;5076831;28;20209;-65
2023/08/20 02:03:37;;;;;;;2.50;2.40;;;24.50;99.90;;;;;;5073366;28;20261;-66
2023/08/20 02:06:04;;;;;;;2.40;2.30;;;24.50;99.90;;;;;;5064468;28;20718;-66
2023/08/20 02:08:32;;;;;;;2.55;2.40;;;24.50;99.90;;;;;;5058203;28;20197;-65
2023/08/20 02:11:03;;;;;;;2.80;2.70;;;24.50;99.90;;;;;;5081747;28;20218;-64
2023/08/20 02:13:31;;;;;;;2.78;2.67;;;24.40;99.90;;;;;;5059504;28;20591;-64
2023/08/20 02:15:59;;;;;;;2.65;2.55;;;24.40;99.90;;;;;;5079845;28;20236;-64
2023/08/20 02:18:28;;;;;;;2.63;2.53;;;24.30;99.90;;;;;;5081612;28;20197;-64
2023/08/20 02:20:57;;;;;;;2.80;2.70;;;24.40;99.90;;;;;;5080306;28;20222;-65
2023/08/20 02:23:24;;;;;;;2.90;2.70;;;24.30;99.90;;;;;;5083637;28;20673;-64
2023/08/20 02:25:52;;;;;;;2.63;2.53;;;24.30;99.90;;;;;;5078820;28;20240;-64
2023/08/20 02:28:20;;;;;;;4.38;2.40;;;24.20;99.90;;;;;;5063786;28;20287;-64
2023/08/20 02:30:47;;;;;;;2.60;2.50;;;24.30;99.90;;;;;;5079237;28;20197;-65
2023/08/20 02:33:14;;;;;;;2.42;2.33;;;24.30;99.90;;;;;;5065407;28;20736;-65
2023/08/20 02:35:42;;;;;;;3.05;2.88;;;24.30;99.90;;;;;;5070646;28;20205;-65
2023/08/20 02:38:11;;;;;;;3.10;2.90;;;24.20;99.90;;;;;;5079514;28;20200;-66
2023/08/20 02:40:42;;;;;;;3.03;2.88;;;24.20;99.90;;;;;;5062630;28;20263;-66
2023/08/20 02:43:09;;;;;;;3.20;3.00;;;24.10;99.90;;;;;;5063573;28;20242;-66
2023/08/20 02:45:42;;;;;;;2.70;2.60;;;24.10;99.90;;;;;;5067098;28;20202;-66
2023/08/20 02:48:09;;;;;;;3.00;2.85;;;24.10;99.90;;;;;;5063765;28;20196;-66
2023/08/20 02:50:36;;;;;;;2.53;2.42;;;24.10;99.90;;;;;;5064394;28;20202;-66
2023/08/20 02:53:04;;;;;;;3.08;2.78;;;24.10;99.90;;;;;;5093672;28;20542;-66
2023/08/20 02:55:33;;;;;;;2.88;2.78;;;24.10;99.90;;;;;;5075507;28;20204;-67
2023/08/20 02:58:02;;;;;;;2.58;2.47;;;24.20;99.90;;;;;;5079386;28;20725;-66
2023/08/20 03:00:29;;;;;;;3.13;2.92;;;24.20;99.90;;;;;;5074654;28;20221;-66
2023/08/20 03:02:58;;;;;;;3.25;3.05;;;24.10;99.90;;;;;;5059574;28;20289;-66
2023/08/20 03:05:25;;;;;;;3.55;3.25;;;24.00;99.90;;;;;;5068510;28;20256;-66
2023/08/20 03:07:52;;;;;;;3.38;3.17;;;24.00;99.90;;;;;;5084702;28;20208;-66
2023/08/20 03:10:19;;;;;;;2.72;2.63;;;24.00;99.90;;;;;;5082929;28;20599;-66
2023/08/20 03:12:47;;;;;;;2.67;2.58;;;23.90;99.90;;;;;;5073445;28;20197;-66
2023/08/20 03:15:15;;;;;;;3.00;2.80;;;23.90;99.90;;;;;;5085937;28;20717;-66
2023/08/20 03:17:42;;;;;;;2.70;2.60;;;23.90;99.90;;;;;;5083951;28;20641;-65
2023/08/20 03:20:10;;;;;;;3.58;3.38;;;23.90;99.90;;;;;;5086121;28;20228;-65
2023/08/20 03:22:38;;;;;;;3.30;3.10;;;23.90;99.90;;;;;;5082227;28;20208;-65
2023/08/20 03:25:06;;;;;;;3.10;3.00;;;23.80;99.90;;;;;;5083590;28;20228;-65
2023/08/20 03:27:33;;;;;;;3.00;2.88;;;23.90;99.90;;;;;;5082702;28;20224;-65
2023/08/20 03:30:01;;;;;;;3.15;2.95;;;23.80;99.90;;;;;;5083586;28;20192;-65
2023/08/20 03:32:29;;;;;;;2.88;2.67;;;23.90;99.90;;;;;;5080030;28;20208;-65
2023/08/20 03:34:57;;;;;;;3.22;2.63;;;23.90;99.90;;;;;;5080347;28;20601;-65
2023/08/20 03:37:24;;;;;;;2.92;2.72;;;23.90;99.90;;;;;;5078413;28;20204;-65
2023/08/20 03:39:51;;;;;;;3.38;3.17;;;23.90;99.90;;;;;;5067972;28;20197;-65
2023/08/20 03:42:18;;;;;;;3.20;3.00;;;23.90;99.90;;;;;;5084280;28;20258;-65
2023/08/20 03:44:45;;;;;;;4.00;3.65;;;23.90;99.90;;;;;;5085558;28;20189;-64
2023/08/20 03:47:14;;;;;;;3.67;3.47;;;23.80;99.90;;;;;;5090600;28;20694;-65
2023/08/20 03:49:41;;;;;;;3.50;3.20;;;23.80;99.90;;;;;;5083306;28;20194;-65
2023/08/20 03:52:08;;;;;;;3.42;3.22;;;23.80;99.90;;;;;;5075288;28;20201;-65
2023/08/20 03:54:35;;;;;;;3.35;3.20;;;23.70;99.90;;;;;;5086591;28;20200;-65
2023/08/20 03:57:02;;;;;;;2.67;2.58;;;23.80;99.90;;;;;;5084758;28;20630;-64
2023/08/20 03:59:31;;;;;;;3.45;3.25;;;23.80;99.90;;;;;;5082447;28;20745;-65
2023/08/20 04:01:58;;;;;;;4.80;3.70;;;23.80;99.90;;;;;;5087118;28;20254;-64
2023/08/20 04:04:27;;;;;;;2.92;2.72;;;23.80;99.90;;;;;;5081700;28;20214;-64
2023/08/20 04:06:54;;;;;;;3.47;3.28;;;23.80;99.90;;;;;;5078834;28;20200;-64
2023/08/20 04:09:22;;;;;;;2.90;2.80;;;23.80;99.90;;;;;;5082686;28;20249;-65
2023/08/20 04:11:49;;;;;;;3.30;3.10;;;23.80;99.90;;;;;;5081445;28;20208;-65
2023/08/20 04:14:16;;;;;;;3.72;3.53;;;23.80;99.90;;;;;;5084404;28;20621;-65
2023/08/20 04:16:43;;;;;;;2.92;2.83;;;23.80;99.90;;;;;;5080425;28;20206;-65
2023/08/20 04:19:10;;;;;;;3.13;2.92;;;23.80;99.90;;;;;;5083815;28;20208;-65
2023/08/20 04:21:39;;;;;;;3.55;2.60;;;23.90;99.90;;;;;;5078043;28;20220;-66
2023/08/20 04:24:07;;;;;;;3.13;2.92;;;23.90;99.90;;;;;;5081721;28;20294;-65
2023/08/20 04:26:34;;;;;;;2.38;2.28;;;24.00;99.90;;;;;;5080777;28;20235;-65
2023/08/20 04:29:05;;;;;;;2.83;2.63;;;24.00;99.90;;;;;;5080390;28;20228;-64
2023/08/20 04:31:33;;;;;;;2.72;2.53;;;24.00;99.90;;;;;;5079141;28;20711;-64
2023/08/20 04:34:08;;;;;;;2.55;2.45;;;24.10;99.90;;;;;;5082025;28;20732;-65
2023/08/20 04:36:42;;;;;;;2.47;2.38;;;24.10;99.90;;;;;;5076820;28;20205;-64
2023/08/20 04:39:10;;;;;;;2.60;2.50;;;24.10;99.90;;;;;;5078695;28;20208;-64
2023/08/20 04:41:40;;;;;;;2.53;2.42;;;24.20;99.90;;;;;;5081956;28;20208;-64
2023/08/20 04:44:12;;;;;;;2.70;2.50;;;24.20;99.90;;;;;;5088204;28;20200;-66
2023/08/20 04:46:39;;;;;;;2.55;2.45;;;24.20;99.90;;;;;;5079700;28;20209;-66
2023/08/20 04:49:06;;;;;;;2.60;2.50;;;24.20;99.90;;;;;;5088810;28;20295;-65
2023/08/20 04:51:33;;;;;;;2.28;2.17;;;24.20;99.90;;;;;;5070042;28;20208;-65
2023/08/20 04:54:02;;;;;;;2.47;2.30;;;24.30;99.90;;;;;;5074402;28;20215;-65
2023/08/20 04:56:29;;;;;;;2.20;2.10;;;24.30;99.90;;;;;;5081572;28;20204;-65
2023/08/20 04:58:57;;;;;;;2.47;2.38;;;24.30;99.90;;;;;;5084265;28;20196;-65
2023/08/20 05:01:42;;;;;;;2.25;2.15;;;24.30;99.90;;;;;;5079592;28;20211;-65
2023/08/20 05:04:10;;;;;;;2.47;2.38;;;24.30;99.90;;;;;;5083793;28;20193;-65
2023/08/20 05:06:38;;;;;;;2.40;2.30;;;24.30;99.90;;;;;;5077840;28;20649;-65
2023/08/20 05:09:06;;;;;;;2.20;2.10;;;24.40;99.90;;;;;;5084736;28;20205;-65
2023/08/20 05:11:33;;;;;;;2.20;2.10;;;24.40;99.90;;;;;;5086643;28;20269;-66
2023/08/20 05:14:01;;;;;;;2.67;2.58;;;24.40;99.90;;;;;;5083803;28;20384;-66
2023/08/20 05:16:28;;;;;;;2.78;2.33;;;24.50;99.90;;;;;;5085873;28;20674;-66
2023/08/20 05:18:55;;;;;;;2.47;2.38;;;24.50;99.90;;;;;;5080571;28;20228;-66
2023/08/20 05:21:23;;;;;;;2.30;2.20;;;24.60;99.90;;;;;;5084460;28;20308;-66
2023/08/20 05:23:50;;;;;;;2.63;2.53;;;24.60;99.90;;;;;;5078726;28;20197;-64
2023/08/20 05:26:19;;;;;;;2.60;2.50;;;24.60;99.90;;;;;;5083252;28;20197;-64
2023/08/20 05:28:46;;;;;;;2.65;2.55;;;24.70;99.90;;;;;;5076528;28;20201;-65
2023/08/20 05:31:14;;;;;;;3.03;2.63;;;24.70;99.90;;;;;;5076669;28;20617;-65
2023/08/20 05:33:42;;;;;;;2.70;2.60;;;24.70;99.90;;;;;;5074415;28;20201;-64
2023/08/20 05:36:11;;;;;;;3.00;2.80;;;24.80;99.90;;;;;;5061630;28;20231;-65
2023/08/20 05:38:38;;;;;;;3.55;3.10;;;24.80;99.90;;;;;;5081791;28;20299;-65
2023/08/20 05:41:05;;;;;;;3.10;2.90;;;24.80;99.90;;;;;;5075608;28;20220;-65
2023/08/20 05:43:34;;;;;;;3.15;3.00;;;24.80;99.90;;;;;;5075659;28;20666;-64
2023/08/20 05:46:01;;;;;;;4.20;3.20;;;24.90;99.90;;;;;;5077077;28;20197;-65
2023/08/20 05:48:29;;;;;;;3.65;3.10;;;24.90;99.90;;;;;;5087586;28;20219;-65
2023/08/20 05:50:57;;;;;;;6.22;3.80;;;24.90;99.90;;;;;;5073769;28;20203;-65
2023/08/20 05:53:24;;;;;;;3.63;3.33;;;25.00;99.90;;;;;;5079682;28;20665;-65
2023/08/20 05:55:51;;;;;;;5.78;3.33;;;25.00;99.90;;;;;;5082143;28;20197;-64
2023/08/20 05:58:19;;;;;;;4.00;3.50;;;25.00;99.90;;;;;;5076362;28;20189;-65
2023/08/20 06:00:48;;;;;;;3.92;3.40;;;25.00;99.90;;;;;;5083575;28;20189;-65
2023/08/20 06:03:16;;;;;;;4.32;3.47;;;25.10;99.90;;;;;;5072539;28;20203;-65
2023/08/20 06:05:43;;;;;;;6.35;3.65;;;25.10;99.90;;;;;;5064109;28;20225;-65
2023/08/20 06:08:10;;;;;;;5.45;4.10;;;25.10;99.90;;;;;;5075245;28;20404;-65
2023/08/20 06:10:37;;;;;;;4.13;3.80;;;25.20;99.90;;;;;;5076162;28;20584;-65
2023/08/20 06:13:06;;;;;;;4.18;3.70;;;25.20;99.90;;;;;;5070773;28;20200;-64
2023/08/20 06:15:33;;;;;;;4.15;3.72;;;25.20;99.90;;;;;;5073442;28;20198;-64
2023/08/20 06:18:01;;;;;;;4.70;3.47;;;25.20;99.90;;;;;;5078385;28;20207;-65
2023/08/20 06:20:28;;;;;;;3.40;3.20;;;25.30;99.90;;;;;;5078579;28;20664;-65
2023/08/20 06:22:55;;;;;;;3.53;3.22;;;25.30;99.90;;;;;;5080670;28;20223;-65
2023/08/20 06:25:22;;;;;;;3.70;3.50;;;25.30;99.90;;;;;;5076293;28;20236;-66
2023/08/20 06:27:50;;;;;;;4.25;3.42;;;25.30;99.90;;;;;;5081546;28;20526;-66
2023/08/20 06:30:17;;;;;;;5.80;3.22;;;25.30;99.90;;;;;;5077049;28;20656;-66
2023/08/20 06:32:45;;;;;;;3.30;3.10;;;25.40;99.90;;;;;;5081365;28;20544;-66
2023/08/20 06:35:14;;;;;;;3.33;3.00;;;25.40;99.90;;;;;;5082790;28;20255;-66
2023/08/20 06:37:41;;;;;;;3.42;3.13;;;25.40;99.90;;;;;;5073760;28;20187;-66
2023/08/20 06:40:09;;;;;;;3.13;2.92;;;25.40;99.90;;;;;;5075180;28;20664;-66
2023/08/20 06:42:36;;;;;;;4.18;3.15;;;25.40;99.90;;;;;;5073757;28;20217;-66
2023/08/20 06:45:04;;;;;;;3.40;3.20;;;25.40;99.90;;;;;;5081651;28;20193;-66
2023/08/20 06:47:31;;;;;;;2.70;2.60;;;25.50;99.90;;;;;;5072682;28;20197;-65
2023/08/20 06:49:58;;;;;;;2.90;2.70;;;25.50;99.90;;;;;;5081779;28;20310;-65
2023/08/20 06:52:27;;;;;;;3.22;2.90;;;25.50;99.90;;;;;;5075936;28;20185;-65
2023/08/20 06:54:54;;;;;;;2.95;2.75;;;25.60;99.90;;;;;;5082107;28;20563;-65
2023/08/20 06:57:21;;;;;;;2.70;2.60;;;25.60;99.90;;;;;;5078442;28;20591;-64
2023/08/20 06:59:51;;;;;;;2.40;2.30;;;25.60;99.90;;;;;;5081955;28;20192;-65
2023/08/20 07:02:18;;;;;;;2.80;2.67;;;25.70;99.90;;;;;;5080177;28;20250;-66
2023/08/20 07:04:45;;;;;;;2.60;2.42;;;25.70;99.90;;;;;;5073308;28;20204;-65
2023/08/20 07:07:14;;;;;;;2.35;2.17;;;25.70;99.90;;;;;;5072431;28;20208;-65
2023/08/20 07:09:43;;;;;;;2.40;2.30;;;25.70;99.90;;;;;;5079864;28;20676;-65
2023/08/20 07:12:10;;;;;;;2.60;2.50;;;25.70;99.90;;;;;;5073354;28;20193;-65
2023/08/20 07:14:37;;;;;;;2.97;2.70;;;25.80;99.90;;;;;;5082679;28;20193;-65
2023/08/20 07:17:05;;;;;;;2.47;2.35;;;25.80;99.90;;;;;;5081676;28;20220;-64
2023/08/20 07:19:32;;;;;;;2.90;2.70;;;25.90;99.90;;;;;;5081853;28;20204;-65
2023/08/20 07:21:59;;;;;;;3.58;2.53;;;25.90;99.90;;;;;;5080641;28;20217;-64
2023/08/20 07:24:27;;;;;;;2.70;2.50;;;25.90;99.90;;;;;;5081019;28;20229;-65
2023/08/20 07:27:00;;;;;;;2.40;2.30;;;25.90;99.90;;;;;;5079992;28;20767;-64
2023/08/20 07:29:29;;;;;;;2.45;2.35;;;25.90;99.90;;;;;;5080355;28;20194;-65
2023/08/20 07:31:57;;;;;;;2.58;2.47;;;26.00;99.90;;;;;;5076276;28;20292;-65
2023/08/20 07:34:24;;;;;;;2.60;2.50;;;26.00;99.90;;;;;;5078864;28;20199;-65
2023/08/20 07:36:51;;;;;;;2.70;2.50;;;26.00;99.90;;;;;;5073895;28;20198;-65
2023/08/20 07:39:18;;;;;;;2.75;2.53;;;26.10;99.90;;;;;;5076564;28;20201;-65
2023/08/20 07:41:45;;;;;;;2.60;2.40;;;26.10;99.90;;;;;;5077340;28;20219;-64
2023/08/20 07:44:14;;;;;;;2.47;2.28;;;26.10;99.90;;;;;;5082648;28;20208;-64
2023/08/20 07:46:41;;;;;;;2.40;2.30;;;26.20;99.90;;;;;;5078701;28;20212;-64
2023/08/20 07:49:08;;;;;;;2.88;2.70;;;26.20;99.90;;;;;;5090029;28;20261;-65
2023/08/20 07:51:35;;;;;;;2.20;2.10;;;26.30;99.90;;;;;;5079498;28;20590;-65
2023/08/20 07:54:02;;;;;;;1.98;1.88;;;26.30;99.90;;;;;;5072906;28;20197;-66
2023/08/20 07:56:29;;;;;;;4.88;2.10;;;26.30;99.90;;;;;;5068036;28;20195;-66
2023/08/20 07:58:56;;;;;;;2.42;2.22;;;26.40;99.90;;;;;;5075924;28;20545;-66
2023/08/20 08:01:25;;;;;;;2.17;2.08;;;26.40;99.90;;;;;;5078296;28;20267;-67
2023/08/20 08:03:52;;;;;;;2.70;2.53;;;26.40;99.90;;;;;;5074458;28;20193;-66
2023/08/20 08:06:21;;;;;;;2.33;2.22;;;26.40;99.90;;;;;;5076751;28;20483;-67
2023/08/20 08:08:48;;;;;;;2.50;2.40;;;26.50;99.90;;;;;;5079767;28;20663;-67
2023/08/20 08:11:15;;;;;;;2.10;2.00;;;26.60;99.90;;;;;;5088718;28;20687;-68
2023/08/20 08:13:42;;;;;;;2.65;2.55;;;26.60;99.90;;;;;;5080711;28;20218;-68
2023/08/20 08:16:09;;;;;;;2.30;2.20;;;26.60;99.90;;;;;;5086513;28;20200;-67
2023/08/20 08:18:38;;;;;;;2.38;2.17;;;26.60;99.90;;;;;;5081154;28;20798;-67
2023/08/20 08:21:05;;;;;;;2.45;2.33;;;26.70;99.90;;;;;;5084437;28;20196;-66
2023/08/20 08:23:32;;;;;;;2.40;2.30;;;26.70;99.90;;;;;;5082797;28;20217;-66
2023/08/20 08:25:59;;;;;;;2.65;2.45;;;26.70;99.90;;;;;;5084168;28;20871;-66
2023/08/20 08:28:26;;;;;;;2.58;2.47;;;26.80;99.90;;;;;;5081426;28;20254;-66
2023/08/20 08:30:53;;;;;;;2.78;2.67;;;26.80;99.90;;;;;;5073888;28;20197;-66
2023/08/20 08:33:20;;;;;;;2.80;2.70;;;26.80;99.90;;;;;;5079140;28;20190;-68
2023/08/20 08:35:49;;;;;;;2.70;2.50;;;26.90;99.90;;;;;;5081178;28;20279;-66
2023/08/20 08:38:16;;;;;;;2.45;2.35;;;26.90;99.90;;;;;;5075048;28;20620;-67
2023/08/20 08:40:44;;;;;;;2.47;2.38;;;26.90;99.90;;;;;;5064655;28;20684;-65
2023/08/20 08:43:16;;;;;;;4.00;2.85;;;27.00;99.90;;;;;;5076145;28;20213;-67
2023/08/20 08:45:46;;;;;;;2.58;2.47;;;27.00;99.90;;;;;;5082416;28;20185;-66
2023/08/20 08:48:14;;;;;;;2.72;2.63;;;27.00;99.90;;;;;;5074814;28;20317;-67
2023/08/20 08:50:41;;;;;;;2.92;2.72;;;27.00;99.90;;;;;;5075535;28;20288;-66
2023/08/20 08:53:10;;;;;;;2.70;2.60;;;27.00;99.90;;;;;;5082334;28;20552;-69
2023/08/20 08:55:38;;;;;;;2.80;2.60;;;27.10;99.90;;;;;;5064033;28;20198;-71
2023/08/20 08:58:05;;;;;;;2.88;2.67;;;27.10;99.90;;;;;;5081854;28;20567;-68
2023/08/20 09:00:32;;;;;;;6.18;2.67;;;27.10;99.90;;;;;;5079953;28;20277;-67
2023/08/20 09:03:00;;;;;;;2.60;2.30;;;27.10;99.90;;;;;;5077635;28;20217;-69
2023/08/20 09:05:27;;;;;;;2.45;2.35;;;27.10;99.90;;;;;;5067766;28;20205;-69
2023/08/20 09:07:57;;;;;;;2.75;2.55;;;27.20;99.90;;;;;;5063238;28;20205;-69
2023/08/20 09:10:28;;;;;;;2.20;2.10;;;27.20;99.90;;;;;;5083761;28;20319;-68
2023/08/20 09:12:57;;;;;;;2.47;2.30;;;27.20;99.90;;;;;;5079475;28;20651;-69
2023/08/20 09:15:35;;;;;;;2.60;2.50;;;27.20;99.90;;;;;;5073196;28;20737;-72
2023/08/20 09:18:03;;;;;;;2.83;2.72;;;27.30;99.90;;;;;;5071945;28;20976;-72
2023/08/20 09:20:37;;;;;;;3.17;2.97;;;27.40;99.90;;;;;;5069738;28;20228;-70
2023/08/20 09:23:05;;;;;;;3.50;2.92;;;27.50;99.90;;;;;;5072561;28;20212;-70
2023/08/20 09:25:33;;;;;;;4.10;3.40;;;27.60;99.90;;;;;;5070057;28;20221;-70
2023/08/20 09:28:04;;;;;;;3.20;3.00;;;27.80;99.90;;;;;;5077758;28;20185;-69
2023/08/20 09:30:31;;;;;;;3.75;3.55;;;27.80;99.90;;;;;;5072015;28;20214;-71
2023/08/20 09:33:08;;;;;;;3.45;3.15;;;28.00;99.90;;;;;;5079204;28;20572;-70
2023/08/20 09:35:35;;;;;;;3.83;3.58;;;28.00;99.90;;;;;;5074262;28;20695;-71
2023/08/20 09:38:04;;;;;;;3.53;3.20;;;28.00;99.90;;;;;;5070324;28;20318;-71
2023/08/20 09:40:33;;;;;;;3.63;3.33;;;28.00;99.90;;;;;;5076210;28;20204;-70
2023/08/20 09:43:02;;;;;;;3.20;2.90;;;28.00;99.90;;;;;;5085718;28;20215;-70
2023/08/20 09:45:30;;;;;;;3.85;3.55;;;28.10;99.90;;;;;;5079184;28;20591;-70
2023/08/20 09:47:59;;;;;;;3.20;3.00;;;28.20;99.90;;;;;;5073878;28;20196;-69
2023/08/20 09:50:27;;;;;;;3.70;3.45;;;28.20;99.90;;;;;;5078249;28;20204;-70
2023/08/20 09:53:00;;;;;;;4.00;3.70;;;28.20;99.90;;;;;;5079544;28;20196;-69
2023/08/20 09:55:34;;;;;;;3.83;3.53;;;28.30;99.90;;;;;;5079762;28;20189;-70
2023/08/20 09:58:03;;;;;;;7.20;3.83;;;28.30;99.90;;;;;;5086366;28;20596;-70
2023/08/20 10:00:32;;;;;;;4.15;3.85;;;28.30;99.90;;;;;;5079163;28;20203;-70
2023/08/20 10:03:00;;;;;;;3.90;3.63;;;28.30;99.90;;;;;;5086335;28;20226;-70
2023/08/20 10:05:27;;;;;;;5.43;4.57;;;28.30;99.90;;;;;;5068827;28;20292;-70
2023/08/20 10:07:56;;;;;;;5.50;4.38;;;28.30;99.90;;;;;;5086554;28;20200;-70
2023/08/20 10:10:23;;;;;;;4.43;4.13;;;28.30;99.90;;;;;;5079917;28;20576;-70
2023/08/20 10:12:51;;;;;;;4.45;4.15;;;28.30;99.90;;;;;;5069404;28;20204;-70
2023/08/20 10:15:19;;;;;;;4.45;4.15;;;28.30;99.90;;;;;;5076727;28;20209;-70
2023/08/20 10:17:47;;;;;;;4.13;3.92;;;28.40;99.90;;;;;;5075400;28;20211;-70
2023/08/20 10:20:16;;;;;;;4.30;3.90;;;28.40;99.90;;;;;;5072897;28;20600;-71
2023/08/20 10:22:44;;;;;;;4.30;4.00;;;28.40;99.90;;;;;;5075887;28;20208;-70
2023/08/20 10:25:13;;;;;;;4.03;3.72;;;28.50;99.90;;;;;;5078774;28;20221;-70
2023/08/20 10:27:43;;;;;;;4.30;4.00;;;28.60;99.90;;;;;;5082992;28;20571;-70
2023/08/20 10:30:15;;;;;;;4.05;3.75;;;28.60;99.90;;;;;;5070904;28;20565;-70
2023/08/20 10:32:48;;;;;;;4.18;3.88;;;28.60;99.90;;;;;;5077864;28;20185;-70
2023/08/20 10:35:17;;;;;;;4.10;3.90;;;28.60;99.90;;;;;;5076199;28;20281;-70
2023/08/20 10:38:03;;;;;;;3.67;3.47;;;28.60;99.90;;;;;;5079305;28;20649;-70
2023/08/20 10:40:48;;;;;;;5.25;4.22;;;28.60;99.90;;;;;;5067856;28;20213;-70
2023/08/20 10:43:29;;;;;;;3.72;3.53;;;28.60;99.90;;;;;;5080961;28;20243;-71
2023/08/20 10:46:06;;;;;;;3.25;3.15;;;28.70;99.90;;;;;;5071719;28;20197;-71
2023/08/20 10:48:38;;;;;;;4.32;4.03;;;28.60;99.90;;;;;;5088038;28;20200;-70
2023/08/20 10:51:12;;;;;;;4.15;3.85;;;28.50;99.90;;;;;;5078199;28;20208;-70
2023/08/20 10:53:40;;;;;;;3.70;3.50;;;28.40;99.90;;;;;;5081682;28;20628;-70
2023/08/20 10:56:13;;;;;;;4.38;4.05;;;28.40;99.90;;;;;;5081722;28;20184;-71
2023/08/20 10:58:42;;;;;;;3.92;3.65;;;28.30;99.90;;;;;;5087554;28;20257;-70
2023/08/20 11:01:18;;;;;;;4.40;4.10;;;28.30;99.90;;;;;;5082193;28;20205;-70
2023/08/20 11:03:49;;;;;;;4.00;3.70;;;28.20;99.90;;;;;;5083343;28;20304;-70
2023/08/20 11:06:16;;;;;;;4.22;3.92;;;28.20;99.90;;;;;;5075256;28;20193;-70
2023/08/20 11:08:44;;;;;;;3.90;3.70;;;28.20;99.90;;;;;;5082851;28;20220;-71
2023/08/20 11:11:12;;;;;;;5.80;4.20;;;28.20;99.90;;;;;;5084582;28;20220;-70
2023/08/20 11:13:39;;;;;;;4.90;4.45;;;28.10;99.90;;;;;;5082213;28;20198;-70
2023/08/20 11:16:08;;;;;;;4.78;4.47;;;28.00;99.90;;;;;;5083274;28;20227;-70
2023/08/20 11:18:36;;;;;;;3.97;3.78;;;28.00;99.90;;;;;;5080195;28;20529;-70
2023/08/20 11:21:05;;;;;;;5.20;4.43;;;27.90;99.90;;;;;;5082206;28;20204;-70
2023/08/20 11:23:32;;;;;;;4.43;4.13;;;27.90;99.90;;;;;;5080434;28;20201;-70
2023/08/20 11:25:59;;;;;;;3.65;3.45;;;27.80;99.90;;;;;;5082554;28;20241;-69
2023/08/20 11:28:28;;;;;;;4.20;3.90;;;27.70;99.90;;;;;;5079523;28;20221;-69
2023/08/20 11:30:56;;;;;;;5.25;4.78;;;27.70;99.90;;;;;;5070550;28;20209;-70
2023/08/20 11:33:23;;;;;;;5.07;4.68;;;27.60;99.90;;;;;;5075935;28;20726;-69
2023/08/20 11:35:52;;;;;;;4.07;3.75;;;27.60;99.90;;;;;;5070504;28;20560;-70
2023/08/20 11:38:22;;;;;;;3.40;3.20;;;27.50;99.90;;;;;;5072996;28;20193;-70
2023/08/20 11:40:49;;;;;;;3.28;3.13;;;27.50;99.90;;;;;;5076248;28;20197;-70
2023/08/20 11:43:17;;;;;;;3.00;2.90;;;27.40;99.90;;;;;;5086478;28;20209;-70
2023/08/20 11:45:48;;;;;;;2.97;2.78;;;27.40;99.90;;;;;;5088005;28;20196;-70
2023/08/20 11:48:16;;;;;;;2.63;2.53;;;27.40;99.90;;;;;;5086536;28;20212;-70
2023/08/20 11:50:44;;;;;;;2.70;2.60;;;27.40;99.90;;;;;;5087076;28;20197;-70
2023/08/20 11:53:12;;;;;;;2.80;2.60;;;27.40;99.90;;;;;;5080750;28;20230;-69
2023/08/20 11:55:42;;;;;;;2.58;2.47;;;27.30;99.90;;;;;;5085959;28;20562;-70
2023/08/20 11:58:13;;;;;;;2.67;2.50;;;27.30;99.90;;;;;;5084513;28;20280;-69
2023/08/20 12:00:40;;;;;;;2.20;2.10;;;27.30;99.90;;;;;;5085142;28;20208;-70
2023/08/20 12:03:08;;;;;;;2.63;2.53;;;27.30;99.90;;;;;;5089047;28;20295;-69
2023/08/20 12:05:36;;;;;;;3.15;2.92;;;27.20;99.90;;;;;;5072045;28;20197;-69
2023/08/20 12:08:04;;;;;;;3.60;3.40;;;27.20;99.90;;;;;;5078340;28;20208;-69
2023/08/20 12:10:33;;;;;;;3.47;3.28;;;27.20;99.90;;;;;;5084193;28;20614;-70
2023/08/20 12:13:03;;;;;;;2.83;2.70;;;27.10;99.90;;;;;;5080531;28;20199;-70
2023/08/20 12:15:30;;;;;;;2.83;2.72;;;27.00;99.90;;;;;;5083481;28;20624;-69
2023/08/20 12:18:04;;;;;;;2.30;2.20;;;27.00;99.90;;;;;;5080856;28;20205;-70
2023/08/20 12:20:33;;;;;;;2.50;2.40;;;27.00;99.90;;;;;;5080803;28;20193;-70
2023/08/20 12:23:01;;;;;;;2.10;2.00;;;27.00;99.90;;;;;;5074844;28;20307;-70
2023/08/20 12:25:30;;;;;;;2.78;2.58;;;27.10;99.90;;;;;;5079155;28;20229;-69
2023/08/20 12:27:58;;;;;;;2.83;2.63;;;27.20;99.90;;;;;;5075465;28;20193;-69
2023/08/20 12:30:26;;;;;;;2.95;2.75;;;27.30;99.90;;;;;;5078705;28;20280;-68
2023/08/20 12:32:53;;;;;;;2.83;2.72;;;27.40;99.90;;;;;;5072981;28;20193;-69
2023/08/20 12:35:21;;;;;;;3.25;3.05;;;27.40;99.90;;;;;;5077184;28;20664;-70
2023/08/20 12:37:48;;;;;;;4.38;3.97;;;27.40;99.90;;;;;;5078599;28;20196;-68
2023/08/20 12:40:15;;;;;;;5.43;4.90;;;27.50;99.90;;;;;;5077042;28;20292;-69
2023/08/20 12:42:42;;;;;;;6.15;5.53;;;27.50;99.90;;;;;;5075077;28;20653;-68
2023/08/20 12:45:12;;;;;;;5.07;4.75;;;27.50;99.90;;;;;;5091613;28;20219;-70
2023/08/20 12:47:41;;;;;;;4.80;4.40;;;27.50;99.90;;;;;;5076635;28;20205;-69
2023/08/20 12:50:10;;;;;;;3.97;3.72;;;27.50;99.90;;;;;;5090127;28;20196;-70
2023/08/20 12:52:37;;;;;;;3.78;3.53;;;27.50;99.90;;;;;;5076765;28;20202;-70
2023/08/20 12:55:04;;;;;;;3.80;3.50;;;27.50;99.90;;;;;;5087157;28;20652;-70